Time;durP1;ratioP1;P1;durP2;ratioP2;P2;SDS_P1;SDS_P2;PMS_P1;PMS_P2;Temp;Humidity;BMP_temperature;BMP_pressure;BME280_temperature;BME280_humidity;BME280_pressure;Samples;Min_cycle;Max_cycle;Signal;HPM_P1;HPM_P2
2021/09/16 00:01:19;;;;;;;9.50;4.45;;;;;;;15.79;100.00;95438.72;4962271;28;20082;-82
2021/09/16 00:03:44;;;;;;;9.70;4.63;;;;;;;15.85;100.00;95447.34;4966597;28;20098;-81
2021/09/16 00:06:10;;;;;;;9.82;4.53;;;;;;;15.79;100.00;95448.53;4973149;28;20058;-80
2021/09/16 00:08:36;;;;;;;6.55;3.90;;;;;;;15.83;100.00;95452.16;4968074;28;20089;-80
2021/09/16 00:11:02;;;;;;;11.85;4.88;;;;;;;15.88;100.00;95446.72;4967260;28;20043;-81
2021/09/16 00:13:28;;;;;;;10.52;4.32;;;;;;;15.87;100.00;95445.16;4970138;28;20070;-80
2021/09/16 00:15:53;;;;;;;6.75;4.00;;;;;;;15.88;100.00;95452.81;4970477;28;20047;-79
2021/09/16 00:18:20;;;;;;;9.02;4.20;;;;;;;15.89;100.00;95448.31;4968992;28;20043;-80
2021/09/16 00:20:45;;;;;;;11.20;4.28;;;;;;;15.81;100.00;95452.47;4973416;28;20583;-79
2021/09/16 00:23:11;;;;;;;7.50;3.85;;;;;;;15.72;100.00;95455.03;4955538;28;20040;-81
2021/09/16 00:25:37;;;;;;;8.38;3.75;;;;;;;15.76;100.00;95449.91;4964302;28;20039;-79
2021/09/16 00:28:03;;;;;;;7.88;4.00;;;;;;;15.84;100.00;95456.38;4971992;28;20104;-81
2021/09/16 00:30:28;;;;;;;9.68;3.92;;;;;;;15.77;100.00;95452.25;4973188;28;20043;-80
2021/09/16 00:32:54;;;;;;;8.77;4.10;;;;;;;15.77;100.00;95451.47;4971339;28;20109;-80
2021/09/16 00:35:19;;;;;;;7.13;4.00;;;;;;;15.82;100.00;95442.66;4972913;28;20062;-81
2021/09/16 00:37:45;;;;;;;6.60;3.85;;;;;;;15.70;100.00;95436.00;4973428;28;20081;-81
2021/09/16 00:40:12;;;;;;;7.78;4.07;;;;;;;15.74;100.00;95431.63;4968620;28;20047;-80
2021/09/16 00:42:37;;;;;;;10.15;3.90;;;;;;;15.87;100.00;95429.22;4961549;28;20066;-81
2021/09/16 00:45:03;;;;;;;6.53;4.00;;;;;;;15.93;100.00;95422.69;4973450;28;20054;-81
2021/09/16 00:47:29;;;;;;;8.45;3.70;;;;;;;15.92;100.00;95429.88;4970871;28;20062;-81
2021/09/16 00:49:55;;;;;;;10.25;4.30;;;;;;;15.87;100.00;95434.53;4971471;28;20057;-81
2021/09/16 00:52:22;;;;;;;9.60;4.32;;;;;;;15.83;100.00;95433.56;4972371;28;20050;-81
2021/09/16 00:54:47;;;;;;;7.45;3.90;;;;;;;15.83;100.00;95433.56;4972844;28;20045;-81
2021/09/16 00:57:16;;;;;;;9.93;4.25;;;;;;;15.72;100.00;95444.41;4972965;28;20047;-79
2021/09/16 00:59:44;;;;;;;7.90;4.57;;;;;;;15.59;100.00;95439.97;4953907;29;20039;-81
2021/09/16 01:02:10;;;;;;;8.20;4.00;;;;;;;15.66;100.00;95443.00;4958906;28;20082;-81
2021/09/16 01:04:36;;;;;;;8.40;4.07;;;;;;;15.71;100.00;95442.84;4972701;28;20081;-79
2021/09/16 01:07:03;;;;;;;9.70;4.22;;;;;;;15.69;100.00;95439.72;4971442;28;20691;-81
2021/09/16 01:09:30;;;;;;;8.40;4.10;;;;;;;15.57;100.00;95436.84;4965352;28;20440;-79
2021/09/16 01:11:56;;;;;;;9.35;3.63;;;;;;;15.59;100.00;95445.28;4971457;28;20070;-81
2021/09/16 01:14:27;;;;;;;9.82;4.50;;;;;;;15.63;100.00;95443.59;4971307;28;20046;-81
2021/09/16 01:16:53;;;;;;;6.70;3.88;;;;;;;15.52;100.00;95444.94;4970508;28;20039;-79
2021/09/16 01:19:19;;;;;;;8.25;4.07;;;;;;;15.46;100.00;95440.81;4972774;28;20054;-81
2021/09/16 01:21:45;;;;;;;6.55;3.97;;;;;;;15.53;100.00;95446.47;4972524;28;20034;-79
2021/09/16 01:24:12;;;;;;;7.13;4.10;;;;;;;15.61;100.00;95453.72;4971204;28;20752;-80
2021/09/16 01:26:38;;;;;;;7.97;4.18;;;;;;;15.52;100.00;95460.84;4971306;28;20074;-78
2021/09/16 01:29:04;;;;;;;7.47;3.78;;;;;;;15.58;100.00;95454.31;4970735;28;20042;-79
2021/09/16 01:31:38;;;;;;;10.60;3.60;;;;;;;15.50;100.00;95442.59;4968197;28;20050;-80
2021/09/16 01:34:08;;;;;;;9.93;4.05;;;;;;;15.51;100.00;95448.66;4971048;28;20050;-79
2021/09/16 01:36:36;;;;;;;7.53;4.10;;;;;;;15.39;100.00;95446.56;4968647;28;20046;-79
2021/09/16 01:39:04;;;;;;;6.82;4.25;;;;;;;15.20;100.00;95444.06;4967273;28;20043;-79
2021/09/16 01:41:30;;;;;;;8.95;4.20;;;;;;;14.99;100.00;95433.91;4957780;28;20049;-78
2021/09/16 01:43:56;;;;;;;8.02;3.92;;;;;;;14.86;100.00;95429.44;4970279;28;20039;-80
2021/09/16 01:57:37;;;;;;;;;;;;;;;15.02;100.00;95441.25;4959420;28;20067;-81
2021/09/16 02:00:07;;;;;;;8.98;3.78;;;;;;;15.06;100.00;95434.28;4970466;28;19973;-79
2021/09/16 02:02:33;;;;;;;8.48;3.92;;;;;;;14.95;100.00;95425.00;4970420;28;20061;-80
2021/09/16 02:04:59;;;;;;;7.93;3.63;;;;;;;14.85;100.00;95419.94;4969474;28;20448;-80
2021/09/16 02:07:25;;;;;;;9.18;4.38;;;;;;;14.83;100.00;95419.44;4968134;28;20043;-80
2021/09/16 02:09:50;;;;;;;9.20;4.28;;;;;;;14.66;100.00;95420.84;4970296;28;20039;-79
2021/09/16 02:12:16;;;;;;;9.18;4.72;;;;;;;14.62;100.00;95424.38;4969886;28;20492;-81
2021/09/16 02:14:41;;;;;;;11.48;4.40;;;;;;;14.65;100.00;95421.94;4972141;28;20073;-81
2021/09/16 02:17:07;;;;;;;9.95;4.13;;;;;;;14.66;100.00;95410.25;4954479;28;20416;-81
2021/09/16 02:19:32;;;;;;;7.60;4.05;;;;;;;14.62;100.00;95409.28;4971201;28;20070;-81
2021/09/16 02:21:58;;;;;;;7.75;3.92;;;;;;;14.48;100.00;95408.47;4971321;28;20050;-79
2021/09/16 02:24:24;;;;;;;7.35;3.95;;;;;;;14.51;100.00;95407.88;4970461;28;20039;-81
2021/09/16 02:26:49;;;;;;;10.02;4.45;;;;;;;14.61;100.00;95413.00;4969434;28;20092;-81
2021/09/16 02:29:15;;;;;;;7.85;4.63;;;;;;;14.50;100.00;95406.34;4971144;28;20043;-79
2021/09/16 02:31:40;;;;;;;8.20;4.07;;;;;;;14.60;100.00;95408.78;4970408;28;20432;-81
2021/09/16 02:34:06;;;;;;;8.93;4.07;;;;;;;14.81;100.00;95411.00;4971001;28;20501;-81
2021/09/16 02:36:31;;;;;;;10.48;3.70;;;;;;;14.93;100.00;95419.22;4957829;28;20086;-81
2021/09/16 02:38:57;;;;;;;8.50;3.85;;;;;;;14.89;100.00;95418.25;4971237;28;20046;-81
2021/09/16 02:41:23;;;;;;;8.63;4.03;;;;;;;14.86;100.00;95430.22;4970076;28;20055;-81
2021/09/16 02:43:49;;;;;;;9.57;3.97;;;;;;;14.66;100.00;95426.16;4966758;28;20715;-80
2021/09/16 02:46:15;;;;;;;10.90;4.15;;;;;;;14.50;100.00;95422.22;4951551;28;20043;-81
2021/09/16 02:48:40;;;;;;;13.18;4.35;;;;;;;14.64;100.00;95427.50;4963867;28;20066;-81
2021/09/16 02:51:06;;;;;;;7.28;4.18;;;;;;;14.72;100.00;95417.03;4968878;28;20054;-81
2021/09/16 02:53:32;;;;;;;11.88;4.20;;;;;;;14.53;100.00;95426.94;4962163;28;20034;-80
2021/09/16 02:55:58;;;;;;;7.50;3.78;;;;;;;14.41;100.00;95418.69;4967380;28;20476;-80
2021/09/16 02:58:24;;;;;;;7.20;4.28;;;;;;;14.33;100.00;95423.59;4969510;28;20122;-79
2021/09/16 03:00:49;;;;;;;8.65;4.30;;;;;;;14.41;100.00;95413.41;4968138;28;20105;-80
2021/09/16 03:03:15;;;;;;;8.38;4.65;;;;;;;14.30;100.00;95418.13;4969628;28;20509;-80
2021/09/16 03:05:41;;;;;;;9.68;4.47;;;;;;;14.22;100.00;95411.63;4966724;28;20055;-80
2021/09/16 03:08:06;;;;;;;10.50;4.43;;;;;;;14.24;100.00;95425.38;4966294;28;20489;-80
2021/09/16 03:10:32;;;;;;;7.65;4.13;;;;;;;14.52;100.00;95414.75;4969424;28;20035;-80
2021/09/16 03:12:57;;;;;;;7.63;4.35;;;;;;;14.65;100.00;95419.28;4969703;28;20689;-80
2021/09/16 03:15:23;;;;;;;15.02;3.80;;;;;;;14.69;100.00;95436.13;4949872;28;20433;-80
2021/09/16 03:17:49;;;;;;;11.05;4.50;;;;;;;14.62;100.00;95424.38;4961808;28;20043;-79
2021/09/16 03:20:15;;;;;;;8.02;4.45;;;;;;;14.58;100.00;95418.84;4967427;28;20406;-81
2021/09/16 03:22:41;;;;;;;9.77;4.50;;;;;;;14.49;100.00;95420.66;4963937;28;20038;-80
2021/09/16 03:25:08;;;;;;;9.50;4.28;;;;;;;14.28;100.00;95415.78;4954046;28;20490;-81
2021/09/16 03:27:34;;;;;;;7.43;4.90;;;;;;;14.23;100.00;95423.78;4957101;28;20050;-80
2021/09/16 03:30:00;;;;;;;11.93;5.53;;;;;;;14.30;100.00;95418.13;4960307;28;20368;-80
2021/09/16 03:32:26;;;;;;;12.27;5.07;;;;;;;14.46;100.00;95415.94;4966806;28;20098;-80
2021/09/16 03:34:51;;;;;;;8.25;4.45;;;;;;;14.53;100.00;95416.34;4968537;28;20042;-80
2021/09/16 03:37:17;;;;;;;9.60;4.68;;;;;;;14.47;100.00;95428.13;4953952;28;20076;-79
2021/09/16 03:39:43;;;;;;;9.60;4.53;;;;;;;14.32;100.00;95427.34;4958481;28;20050;-80
2021/09/16 03:42:09;;;;;;;12.48;5.30;;;;;;;14.29;100.00;95419.97;4969407;28;20054;-80
2021/09/16 03:44:36;;;;;;;7.85;4.47;;;;;;;14.28;100.00;95410.47;4967025;28;20047;-81
2021/09/16 03:47:03;;;;;;;7.22;4.63;;;;;;;14.38;100.00;95417.44;4969596;28;20114;-80
2021/09/16 03:49:29;;;;;;;8.52;4.45;;;;;;;14.31;100.00;95420.47;4967528;28;20054;-80
2021/09/16 03:51:54;;;;;;;9.30;4.85;;;;;;;14.38;100.00;95420.84;4961588;28;20043;-80
2021/09/16 03:54:20;;;;;;;14.52;4.82;;;;;;;14.40;100.00;95417.91;4969185;28;20046;-80
2021/09/16 03:56:46;;;;;;;10.13;4.72;;;;;;;14.54;100.00;95412.63;4972857;28;20247;-79
2021/09/16 03:59:11;;;;;;;14.95;4.82;;;;;;;14.46;100.00;95415.94;4969484;28;20472;-81
2021/09/16 04:01:36;;;;;;;11.13;4.63;;;;;;;14.41;100.00;95418.69;4971679;28;20468;-80
2021/09/16 04:04:02;;;;;;;12.38;5.78;;;;;;;14.40;100.00;95407.31;4971427;28;20118;-80
2021/09/16 04:06:28;;;;;;;11.32;5.10;;;;;;;14.35;100.00;95410.88;4968669;28;20043;-80
2021/09/16 04:08:53;;;;;;;9.52;4.85;;;;;;;14.40;100.00;95411.84;4975687;28;20074;-80
2021/09/16 04:11:19;;;;;;;9.50;5.13;;;;;;;14.51;100.00;95407.88;4972354;28;20043;-79
2021/09/16 04:13:44;;;;;;;12.80;5.03;;;;;;;14.63;100.00;95405.56;4972960;28;20046;-80
2021/09/16 04:16:10;;;;;;;12.10;4.60;;;;;;;14.70;100.00;95400.63;4970432;28;20043;-79
2021/09/16 04:18:36;;;;;;;10.55;4.93;;;;;;;14.60;100.00;95406.13;4971084;28;20050;-79
2021/09/16 04:21:01;;;;;;;14.80;5.60;;;;;;;14.72;100.00;95403.78;4972852;28;20057;-79
2021/09/16 04:23:26;;;;;;;9.20;4.80;;;;;;;14.92;100.00;95407.06;4970449;28;20386;-79
2021/09/16 04:25:52;;;;;;;8.63;4.55;;;;;;;14.96;100.00;95408.03;4971076;28;20077;-80
2021/09/16 04:28:18;;;;;;;10.02;4.80;;;;;;;14.90;100.00;95403.94;4971106;28;20051;-80
2021/09/16 04:30:43;;;;;;;8.32;4.85;;;;;;;15.00;100.00;95409.00;4971182;28;20073;-79
2021/09/16 04:33:09;;;;;;;14.25;4.97;;;;;;;14.87;100.00;95404.53;4967170;28;20042;-80
2021/09/16 04:35:34;;;;;;;9.55;4.97;;;;;;;14.80;100.00;95388.25;4969000;28;20047;-79
2021/09/16 04:38:00;;;;;;;11.50;5.70;;;;;;;14.73;100.00;95375.41;4966561;28;20069;-80
2021/09/16 04:40:25;;;;;;;16.15;5.28;;;;;;;14.81;100.00;95392.47;4970647;28;20042;-79
2021/09/16 04:42:51;;;;;;;12.27;4.85;;;;;;;14.83;100.00;95392.97;4971860;28;20062;-78
2021/09/16 04:45:16;;;;;;;15.00;5.18;;;;;;;14.81;100.00;95395.09;4965870;28;20484;-79
2021/09/16 04:47:42;;;;;;;12.98;5.40;;;;;;;14.69;100.00;95388.47;4961643;28;20051;-80
2021/09/16 04:50:09;;;;;;;12.60;5.38;;;;;;;14.95;100.00;95395.84;4971264;28;20054;-80
2021/09/16 04:52:35;;;;;;;9.48;5.35;;;;;;;15.09;100.00;95403.00;4970281;28;20523;-79
2021/09/16 04:55:01;;;;;;;17.33;5.55;;;;;;;15.07;100.00;95409.38;4970537;28;20066;-79
2021/09/16 04:57:27;;;;;;;14.50;5.43;;;;;;;14.82;100.00;95392.16;4971513;28;20456;-79
2021/09/16 04:59:54;;;;;;;9.52;5.25;;;;;;;14.82;100.00;95401.97;4970122;28;20061;-79
2021/09/16 05:02:20;;;;;;;10.48;5.07;;;;;;;15.02;100.00;95396.22;4970089;28;20492;-79
2021/09/16 05:04:45;;;;;;;11.23;5.45;;;;;;;14.88;100.00;95385.69;4970019;28;20046;-79
2021/09/16 05:07:11;;;;;;;10.35;5.30;;;;;;;14.82;100.00;95401.97;4956177;28;20044;-79
2021/09/16 05:09:36;;;;;;;11.45;5.90;;;;;;;14.80;100.00;95404.16;4970713;28;20598;-79
2021/09/16 05:12:02;;;;;;;12.93;5.80;;;;;;;14.79;100.00;95403.34;4970322;28;20049;-80
2021/09/16 05:14:28;;;;;;;14.60;5.90;;;;;;;14.78;100.00;95401.00;4970517;28;20042;-79
2021/09/16 05:16:53;;;;;;;11.65;5.70;;;;;;;14.77;100.00;95404.72;4957782;28;20051;-78
2021/09/16 05:19:19;;;;;;;11.18;6.07;;;;;;;14.78;100.00;95411.59;4965676;28;20543;-79
2021/09/16 05:21:45;;;;;;;12.63;6.00;;;;;;;14.84;100.00;95426.28;4970356;28;20098;-80
2021/09/16 05:24:16;;;;;;;12.75;5.63;;;;;;;14.88;100.00;95421.97;4971871;28;20049;-80
2021/09/16 05:26:46;;;;;;;14.30;5.80;;;;;;;14.86;100.00;95418.84;4970847;28;20046;-79
2021/09/16 05:29:13;;;;;;;16.20;6.63;;;;;;;14.85;100.00;95417.28;4971177;28;20039;-80
2021/09/16 05:31:39;;;;;;;12.55;5.75;;;;;;;14.94;100.00;95418.16;4971316;28;20047;-79
2021/09/16 05:34:06;;;;;;;13.10;6.30;;;;;;;14.99;100.00;95427.84;4970069;28;20047;-78
2021/09/16 05:36:31;;;;;;;10.02;6.13;;;;;;;14.94;100.00;95426.09;4969609;28;20066;-80
2021/09/16 05:38:57;;;;;;;13.70;6.10;;;;;;;14.93;100.00;95429.81;4969034;28;20043;-79
2021/09/16 05:41:23;;;;;;;10.35;5.75;;;;;;;15.06;100.00;95426.34;4971974;28;20842;-79
2021/09/16 05:43:50;;;;;;;14.35;5.60;;;;;;;15.18;100.00;95425.81;4972455;28;20110;-80
2021/09/16 05:46:16;;;;;;;12.93;5.75;;;;;;;15.32;100.00;95423.09;4970001;28;20665;-79
2021/09/16 05:48:42;;;;;;;11.30;5.30;;;;;;;15.33;100.00;95416.72;4972590;28;20053;-80
2021/09/16 05:51:07;;;;;;;10.52;5.53;;;;;;;15.37;100.00;95420.34;4970486;28;20043;-80
2021/09/16 05:53:33;;;;;;;10.90;5.32;;;;;;;15.45;100.00;95428.66;4968858;28;20138;-79
2021/09/16 05:55:59;;;;;;;7.65;4.55;;;;;;;15.46;100.00;95433.66;4967033;28;20464;-79
2021/09/16 05:58:24;;;;;;;11.13;5.40;;;;;;;15.49;100.00;95434.94;4979632;28;20047;-78
2021/09/16 06:00:50;;;;;;;12.75;5.72;;;;;;;15.49;100.00;95434.94;4986981;28;20038;-79
2021/09/16 06:03:15;;;;;;;12.85;5.85;;;;;;;15.44;100.00;95443.00;4990489;28;20042;-77
2021/09/16 06:05:41;;;;;;;13.32;5.80;;;;;;;15.46;100.00;95454.06;4994055;28;20079;-77
2021/09/16 06:08:07;;;;;;;11.25;5.10;;;;;;;15.45;100.00;95444.56;4995902;28;20035;-77
2021/09/16 06:10:32;;;;;;;18.10;5.55;;;;;;;15.48;100.00;95443.97;4996081;28;20042;-78
2021/09/16 06:12:58;;;;;;;8.77;4.60;;;;;;;15.59;100.00;95439.97;4997448;28;20041;-77
2021/09/16 06:15:24;;;;;;;14.63;5.15;;;;;;;15.59;100.00;95442.63;4983404;28;20058;-77
2021/09/16 06:17:49;;;;;;;9.70;4.82;;;;;;;15.62;100.00;95444.69;4994195;28;20023;-77
2021/09/16 06:20:15;;;;;;;11.88;4.68;;;;;;;15.62;100.00;95442.03;4995821;28;20031;-76
2021/09/16 06:22:45;;;;;;;10.25;4.55;;;;;;;15.68;100.00;95448.75;4995047;28;20047;-77
2021/09/16 06:25:12;;;;;;;7.57;4.38;;;;;;;15.73;100.00;95453.94;4995744;28;20026;-75
2021/09/16 06:27:37;;;;;;;8.23;4.63;;;;;;;15.72;100.00;95451.59;5002489;28;20046;-75
2021/09/16 06:30:04;;;;;;;11.35;4.45;;;;;;;15.70;100.00;95457.22;4975554;28;20128;-76
2021/09/16 06:32:29;;;;;;;11.13;4.47;;;;;;;15.83;100.00;95454.81;4968653;28;20572;-74
2021/09/16 06:34:55;;;;;;;12.98;5.25;;;;;;;15.79;100.00;95459.16;4967969;28;20058;-77
2021/09/16 06:37:21;;;;;;;12.25;4.50;;;;;;;15.76;100.00;95456.00;4966590;28;20502;-76
2021/09/16 06:39:47;;;;;;;11.80;5.43;;;;;;;15.68;100.00;95454.06;4969931;28;20051;-76
2021/09/16 06:42:12;;;;;;;12.90;4.57;;;;;;;15.83;100.00;95444.19;4970436;28;20267;-75
2021/09/16 06:44:38;;;;;;;9.45;4.43;;;;;;;15.77;100.00;95441.66;4967702;28;21433;-75
2021/09/16 06:47:04;;;;;;;11.10;4.90;;;;;;;15.89;100.00;95443.00;4970247;28;20094;-77
2021/09/16 06:49:29;;;;;;;11.13;5.13;;;;;;;15.90;100.00;95439.22;4969243;28;20046;-76
2021/09/16 06:51:56;;;;;;;11.80;4.60;;;;;;;16.03;100.00;95438.38;4967904;28;20050;-75
2021/09/16 06:54:21;;;;;;;12.15;4.93;;;;;;;16.13;100.00;95436.53;4964829;28;20509;-76
2021/09/16 06:56:47;;;;;;;10.00;5.00;;;;;;;16.15;100.00;95437.00;4967403;28;20106;-76
2021/09/16 06:59:12;;;;;;;10.68;4.90;;;;;;;16.09;100.00;95436.34;4969114;28;20050;-75
2021/09/16 07:01:38;;;;;;;9.43;4.70;;;;;;;16.16;100.00;95441.22;4962298;28;20561;-76
2021/09/16 07:04:04;;;;;;;12.07;4.55;;;;;;;16.16;100.00;95457.94;4968230;28;20089;-76
2021/09/16 07:06:29;;;;;;;9.55;4.72;;;;;;;16.25;100.00;95460.66;4960978;28;20043;-76
2021/09/16 07:08:55;;;;;;;13.52;4.95;;;;;;;16.25;100.00;95460.66;4970013;28;20051;-76
2021/09/16 07:11:21;;;;;;;17.00;5.43;;;;;;;16.20;100.00;95452.81;4967779;28;20046;-75
2021/09/16 07:13:46;;;;;;;11.43;5.00;;;;;;;16.27;100.00;95453.13;4967726;28;20038;-76
2021/09/16 07:16:12;;;;;;;12.45;5.20;;;;;;;16.38;100.00;95454.44;4969054;28;20409;-77
2021/09/16 07:18:37;;;;;;;8.85;4.78;;;;;;;16.43;100.00;95466.78;4961310;28;20105;-76
2021/09/16 07:21:03;;;;;;;10.48;4.80;;;;;;;16.33;100.00;95467.84;4967510;28;20047;-75
2021/09/16 07:23:29;;;;;;;12.95;4.82;;;;;;;16.33;100.00;95467.06;4968370;28;20117;-77
2021/09/16 07:25:55;;;;;;;11.80;5.00;;;;;;;16.39;100.00;95474.59;4960231;28;20039;-78
2021/09/16 07:28:20;;;;;;;13.25;5.15;;;;;;;16.47;100.00;95466.97;4966578;28;20049;-79
2021/09/16 07:30:46;;;;;;;16.50;5.90;;;;;;;16.47;100.00;95466.97;4973266;28;20051;-75
2021/09/16 07:33:12;;;;;;;11.82;4.88;;;;;;;16.51;100.00;95459.94;4972670;28;20051;-76
2021/09/16 07:35:37;;;;;;;8.73;5.22;;;;;;;16.48;100.00;95463.19;4964116;28;20516;-75
2021/09/16 07:38:03;;;;;;;14.10;5.78;;;;;;;16.68;100.00;95461.84;4968947;28;20047;-75
2021/09/16 07:40:29;;;;;;;9.07;5.15;;;;;;;16.76;100.00;95469.84;4971434;28;20042;-76
2021/09/16 07:42:55;;;;;;;11.63;5.00;;;;;;;16.76;100.00;95461.88;4973647;28;20102;-77
2021/09/16 07:45:20;;;;;;;11.10;5.15;;;;;;;16.84;100.00;95459.53;4971964;28;20073;-75
2021/09/16 07:47:46;;;;;;;12.52;5.07;;;;;;;16.93;100.00;95468.34;4971870;28;20046;-76
2021/09/16 07:50:12;;;;;;;13.52;5.03;;;;;;;16.95;100.00;95466.16;4971742;28;20046;-75
2021/09/16 07:52:38;;;;;;;15.85;5.75;;;;;;;17.02;100.00;95463.03;4972853;28;20051;-75
2021/09/16 07:55:05;;;;;;;10.38;5.40;;;;;;;17.11;100.00;95464.63;4966402;28;20449;-75
2021/09/16 07:57:30;;;;;;;12.27;5.25;;;;;;;17.11;100.00;95469.13;4971324;28;20047;-75
2021/09/16 07:59:56;;;;;;;10.77;5.65;;;;;;;17.04;100.00;95474.94;4971340;28;20085;-76
2021/09/16 08:02:21;;;;;;;10.73;5.43;;;;;;;17.06;100.00;95472.72;4972983;28;20038;-76
2021/09/16 08:04:47;;;;;;;22.08;6.03;;;;;;;16.96;100.00;95462.41;4970122;28;20055;-76
2021/09/16 08:07:12;;;;;;;11.38;5.63;;;;;;;16.99;100.00;95467.09;4958322;28;20051;-75
2021/09/16 08:09:38;;;;;;;14.07;5.72;;;;;;;16.89;100.00;95472.72;4978024;28;20049;-75
2021/09/16 08:12:04;;;;;;;18.83;6.13;;;;;;;16.89;100.00;95472.72;4972902;28;20038;-76
2021/09/16 08:14:30;;;;;;;11.68;5.55;;;;;;;16.93;100.00;95473.66;4971419;28;20039;-74
2021/09/16 08:16:58;;;;;;;13.90;6.38;;;;;;;16.97;100.00;95469.28;4970504;28;20039;-75
2021/09/16 08:19:23;;;;;;;13.35;5.80;;;;;;;17.03;100.00;95478.69;4971711;28;20055;-75
2021/09/16 08:21:49;;;;;;;15.50;5.95;;;;;;;16.96;100.00;95478.34;4971975;28;20058;-75
2021/09/16 08:24:15;;;;;;;12.63;6.47;;;;;;;16.98;100.00;95481.47;4966777;28;20039;-75
2021/09/16 08:26:41;;;;;;;13.43;6.32;;;;;;;17.02;100.00;95482.41;4972232;28;20043;-75
2021/09/16 08:29:06;;;;;;;14.32;6.50;;;;;;;17.09;100.00;95472.09;4971736;28;20049;-76
2021/09/16 08:31:32;;;;;;;11.13;6.03;;;;;;;17.11;100.00;95469.94;4971778;28;20039;-76
2021/09/16 08:33:58;;;;;;;12.20;6.80;;;;;;;17.09;100.00;95474.75;4968493;28;20102;-76
2021/09/16 08:36:24;;;;;;;17.80;6.38;;;;;;;17.02;100.00;95471.78;4963057;28;20054;-76
2021/09/16 08:38:49;;;;;;;14.52;7.43;;;;;;;16.98;100.00;95476.16;4973272;28;20066;-78
2021/09/16 08:41:15;;;;;;;13.55;6.00;;;;;;;17.00;100.00;95473.22;4970943;28;20043;-76
2021/09/16 08:43:42;;;;;;;16.77;6.35;;;;;;;16.93;100.00;95471.00;4971192;28;20050;-75
2021/09/16 08:46:09;;;;;;;18.38;6.78;;;;;;;16.93;100.00;95457.72;4959810;28;20101;-76
2021/09/16 08:48:34;;;;;;;17.75;6.63;;;;;;;17.10;100.00;95463.03;4972732;28;20051;-77
2021/09/16 08:51:00;;;;;;;15.30;7.50;;;;;;;17.17;100.00;95464.44;4971871;28;20117;-76
2021/09/16 08:53:28;;;;;;;13.13;6.82;;;;;;;17.29;100.00;95469.94;4958062;28;20122;-76
2021/09/16 08:55:55;;;;;;;14.10;6.72;;;;;;;17.33;100.00;95465.56;4972449;28;20456;-75
2021/09/16 08:58:25;;;;;;;16.88;6.93;;;;;;;17.41;100.00;95467.44;4972342;28;20129;-77
2021/09/16 09:00:51;;;;;;;13.55;7.57;;;;;;;17.42;100.00;95474.31;4969469;28;20047;-76
2021/09/16 09:03:17;;;;;;;14.18;6.40;;;;;;;17.60;100.00;95474.31;4970290;28;20047;-77
2021/09/16 09:05:44;;;;;;;14.65;6.10;;;;;;;17.67;100.00;95469.31;4962787;28;20811;-78
2021/09/16 09:08:11;;;;;;;14.40;7.00;;;;;;;17.76;100.00;95467.38;4972972;28;20444;-77
2021/09/16 09:10:47;;;;;;;14.20;6.53;;;;;;;17.82;100.00;95468.78;4970536;28;20039;-76
2021/09/16 09:13:21;;;;;;;13.15;7.10;;;;;;;17.87;100.00;95461.72;4970639;28;20090;-75
2021/09/16 09:15:48;;;;;;;;;;;;;;;17.93;100.00;95471.13;4953029;28;20039;-76
2021/09/16 09:18:16;;;;;;;13.70;6.57;;;;;;;18.03;100.00;95470.81;4969461;28;20738;-76
2021/09/16 09:21:07;;;;;;;13.32;6.22;;;;;;;17.99;100.00;95470.66;4970246;28;20409;-76
2021/09/16 09:23:39;;;;;;;14.43;5.57;;;;;;;17.96;100.00;95473.19;4971130;28;20043;-76
2021/09/16 09:26:23;;;;;;;11.95;5.93;;;;;;;17.96;100.00;95470.53;4971671;28;20126;-75
2021/09/16 09:28:51;;;;;;;14.27;6.65;;;;;;;17.98;100.00;95468.31;4971283;28;20413;-76
2021/09/16 09:31:19;;;;;;;13.13;6.55;;;;;;;18.00;100.00;95460.78;4971064;28;20039;-76
2021/09/16 09:33:45;;;;;;;15.60;7.00;;;;;;;17.93;100.00;95461.28;4971585;28;20042;-76
2021/09/16 09:36:20;;;;;;;11.95;6.50;;;;;;;18.01;100.00;95462.34;4970666;28;20035;-76
2021/09/16 09:38:50;;;;;;;13.38;6.50;;;;;;;17.90;100.00;95461.09;4970718;28;20047;-76
2021/09/16 09:41:28;;;;;;;15.70;7.15;;;;;;;17.90;100.00;95461.91;4970362;28;20672;-76
2021/09/16 09:44:14;;;;;;;15.52;6.68;;;;;;;17.86;100.00;95460.16;4971787;28;20161;-76
2021/09/16 09:46:43;;;;;;;13.23;6.35;;;;;;;17.78;100.00;95454.53;4969590;28;20046;-76
2021/09/16 09:49:11;;;;;;;14.20;6.82;;;;;;;17.67;100.00;95453.34;4966652;28;20121;-77
2021/09/16 09:51:51;;;;;;;12.30;6.47;;;;;;;17.60;100.00;95456.47;4970428;28;20043;-78
2021/09/16 09:54:28;;;;;;;16.02;7.28;;;;;;;17.55;100.00;95450.53;4969254;28;20039;-77
2021/09/16 09:57:16;;;;;;;17.92;7.00;;;;;;;17.49;100.00;95447.25;4963861;28;20532;-76
2021/09/16 09:59:55;;;;;;;16.75;8.45;;;;;;;17.47;100.00;95450.22;4970695;28;20050;-76
2021/09/16 10:02:22;;;;;;;16.55;7.85;;;;;;;17.34;100.00;95453.03;4957171;28;20576;-77
2021/09/16 10:04:49;;;;;;;14.90;6.80;;;;;;;17.30;100.00;95450.22;4969530;28;20057;-78
2021/09/16 10:07:28;;;;;;;15.50;7.15;;;;;;;17.33;100.00;95449.59;4956844;28;20118;-76
2021/09/16 10:09:58;;;;;;;16.35;7.40;;;;;;;17.31;100.00;95454.44;4966429;28;20039;-77
2021/09/16 10:12:26;;;;;;;15.68;7.43;;;;;;;17.25;100.00;95453.03;4971146;28;20105;-77
2021/09/16 10:14:52;;;;;;;17.90;7.40;;;;;;;17.20;100.00;95445.22;4970985;28;20046;-76
2021/09/16 10:17:17;;;;;;;16.95;7.80;;;;;;;17.19;100.00;95448.97;4952252;28;20043;-76
2021/09/16 10:19:43;;;;;;;18.38;8.00;;;;;;;17.16;100.00;95449.59;4951755;28;20456;-77
2021/09/16 10:22:10;;;;;;;15.40;7.75;;;;;;;17.14;100.00;95445.38;4951635;29;20039;-77
2021/09/16 10:24:36;;;;;;;19.48;7.82;;;;;;;17.17;100.00;95445.84;4959869;28;20058;-76
2021/09/16 10:27:02;;;;;;;18.05;7.85;;;;;;;17.16;100.00;95453.03;4970688;28;20448;-77
2021/09/16 10:29:27;;;;;;;20.00;8.80;;;;;;;17.16;100.00;95455.69;4970960;28;20127;-77
2021/09/16 10:32:05;;;;;;;17.15;8.30;;;;;;;17.25;100.00;95463.69;4969302;28;20053;-76
2021/09/16 10:34:45;;;;;;;13.40;7.30;;;;;;;17.21;100.00;95457.41;4982211;28;20824;-79
2021/09/16 10:37:17;;;;;;;17.08;8.18;;;;;;;17.26;100.00;95455.38;4958217;28;20065;-76
2021/09/16 10:39:44;;;;;;;21.02;8.45;;;;;;;17.40;100.00;95459.78;4970188;28;20047;-76
2021/09/16 10:42:11;;;;;;;17.17;9.45;;;;;;;17.55;100.00;95461.16;4964684;28;20099;-79
2021/09/16 10:44:42;;;;;;;17.05;8.18;;;;;;;17.60;100.00;95455.69;4968887;28;20043;-80
2021/09/16 10:47:19;;;;;;;23.55;8.93;;;;;;;17.63;100.00;95449.72;4969255;28;20115;-79
2021/09/16 10:49:46;;;;;;;22.45;8.93;;;;;;;17.73;100.00;95444.06;4965759;28;20444;-75
2021/09/16 10:52:12;;;;;;;15.35;7.82;;;;;;;17.80;100.00;95447.03;4969453;28;20503;-76
2021/09/16 10:54:52;;;;;;;13.75;7.63;;;;;;;17.79;100.00;95453.44;4969025;28;20047;-76
2021/09/16 10:57:39;;;;;;;13.88;7.88;;;;;;;17.70;100.00;95447.38;4970198;28;20050;-76
2021/09/16 11:00:17;;;;;;;12.75;7.78;;;;;;;17.68;100.00;95454.88;4969203;28;20097;-76
2021/09/16 11:02:43;;;;;;;15.73;7.75;;;;;;;17.79;100.00;95450.78;4970242;28;20074;-76
2021/09/16 11:05:12;;;;;;;16.40;7.68;;;;;;;17.92;100.00;95449.06;4967858;28;20062;-76
2021/09/16 11:07:38;;;;;;;15.05;7.88;;;;;;;17.90;100.00;95450.44;4966200;28;20122;-75
2021/09/16 11:10:22;;;;;;;16.08;7.85;;;;;;;17.88;100.00;95442.00;4967820;28;20054;-76
2021/09/16 11:12:55;;;;;;;16.55;7.78;;;;;;;17.94;100.00;95440.75;4979813;28;20050;-76
2021/09/16 11:15:31;;;;;;;18.10;8.70;;;;;;;17.90;100.00;95439.78;4961605;28;20073;-76
2021/09/16 11:18:13;;;;;;;15.55;7.95;;;;;;;17.91;100.00;95436.06;4965461;28;20074;-76
2021/09/16 11:20:40;;;;;;;17.50;7.80;;;;;;;17.99;100.00;95432.59;4970052;28;20058;-77
2021/09/16 11:23:06;;;;;;;14.75;8.02;;;;;;;18.05;100.00;95441.97;4968166;28;20042;-76
2021/09/16 11:25:35;;;;;;;16.85;8.57;;;;;;;18.00;100.00;95444.78;4968360;28;20072;-76
2021/09/16 11:28:01;;;;;;;16.02;8.30;;;;;;;18.02;100.00;95437.28;4970246;28;20496;-75
2021/09/16 11:30:27;;;;;;;21.60;8.35;;;;;;;18.05;100.00;95431.31;4969419;28;20050;-77